Time;durP1;ratioP1;P1;durP2;ratioP2;P2;SDS_P1;SDS_P2;PMS_P1;PMS_P2;Temp;Humidity;BMP_temperature;BMP_pressure;BME280_temperature;BME280_humidity;BME280_pressure;Samples;Min_cycle;Max_cycle;Signal;HPM_P1;HPM_P2
2023/04/19 00:00:20;;;;;;;1.60;1.50;;;18.30;68.70;;;;;;5035182;28;20438;-66
2023/04/19 00:02:48;;;;;;;1.33;1.23;;;18.30;69.70;;;;;;5033821;28;20027;-66
2023/04/19 00:05:14;;;;;;;1.45;1.35;;;18.20;68.70;;;;;;5034968;28;20018;-66
2023/04/19 00:07:40;;;;;;;1.40;1.30;;;18.20;68.60;;;;;;5035100;28;20018;-66
2023/04/19 00:10:06;;;;;;;1.55;1.25;;;18.20;68.70;;;;;;5034805;28;20025;-66
2023/04/19 00:12:32;;;;;;;1.65;1.55;;;18.20;68.60;;;;;;5033817;28;20029;-66
2023/04/19 00:14:57;;;;;;;1.42;1.33;;;18.20;68.70;;;;;;5034883;28;20088;-66
2023/04/19 00:17:23;;;;;;;1.42;1.30;;;18.20;68.70;;;;;;5034560;28;20110;-66
2023/04/19 00:19:49;;;;;;;1.98;1.40;;;18.20;68.80;;;;;;5034598;28;20435;-66
2023/04/19 00:22:16;;;;;;;1.50;1.40;;;18.20;68.70;;;;;;5034655;28;20060;-67
2023/04/19 00:24:41;;;;;;;5.45;1.38;;;18.20;68.70;;;;;;5034486;28;20045;-66
2023/04/19 00:27:07;;;;;;;1.90;1.27;;;18.20;68.80;;;;;;5034119;28;20443;-66
2023/04/19 00:29:33;;;;;;;1.90;1.80;;;18.20;68.90;;;;;;5034637;28;20059;-67
2023/04/19 00:31:58;;;;;;;1.50;1.40;;;18.20;68.90;;;;;;5034423;28;20104;-66
2023/04/19 00:34:24;;;;;;;1.75;1.40;;;18.10;68.90;;;;;;5034305;28;20071;-66
2023/04/19 00:36:50;;;;;;;1.50;1.40;;;18.10;69.00;;;;;;5034285;28;20025;-66
2023/04/19 00:39:16;;;;;;;1.52;1.40;;;18.10;69.00;;;;;;5034405;28;20538;-66
2023/04/19 00:41:41;;;;;;;1.33;1.23;;;18.20;69.00;;;;;;5034082;28;20480;-66
2023/04/19 00:44:07;;;;;;;2.10;1.48;;;18.10;69.10;;;;;;5034032;28;20092;-66
2023/04/19 00:46:33;;;;;;;2.92;1.70;;;18.10;69.00;;;;;;5033950;28;20033;-66
2023/04/19 00:48:58;;;;;;;1.45;1.35;;;18.10;69.10;;;;;;5032927;28;20356;-66
2023/04/19 00:51:26;;;;;;;1.48;1.38;;;18.10;69.10;;;;;;5032660;28;20036;-66
2023/04/19 00:53:51;;;;;;;1.42;1.30;;;18.10;69.10;;;;;;5032262;28;20018;-66
2023/04/19 00:56:17;;;;;;;1.98;1.80;;;18.10;69.10;;;;;;5034008;28;20037;-66
2023/04/19 00:58:43;;;;;;;1.60;1.40;;;18.10;69.20;;;;;;5032669;28;20126;-66
2023/04/19 01:01:09;;;;;;;1.38;1.27;;;18.10;69.40;;;;;;5033982;28;20036;-66
2023/04/19 01:03:35;;;;;;;1.58;1.48;;;18.10;69.60;;;;;;5032984;28;20112;-66
2023/04/19 01:06:00;;;;;;;1.83;1.27;;;18.10;69.70;;;;;;5033432;28;20420;-66
2023/04/19 01:08:26;;;;;;;1.55;1.45;;;18.00;69.50;;;;;;5033692;28;20105;-66
2023/04/19 01:10:52;;;;;;;2.30;1.20;;;18.00;69.60;;;;;;5033633;28;20026;-66
2023/04/19 01:13:17;;;;;;;1.77;1.65;;;18.00;69.60;;;;;;5033423;28;20060;-66
2023/04/19 01:15:43;;;;;;;1.67;1.40;;;18.10;69.70;;;;;;5032333;28;20072;-66
2023/04/19 01:18:10;;;;;;;1.40;1.30;;;18.10;69.70;;;;;;5033370;28;20377;-66
2023/04/19 01:20:35;;;;;;;1.52;1.42;;;18.10;69.60;;;;;;5033584;28;20030;-66
2023/04/19 01:23:01;;;;;;;1.60;1.50;;;18.00;69.70;;;;;;5033359;28;20021;-66
2023/04/19 01:25:27;;;;;;;2.58;1.58;;;18.00;69.60;;;;;;5033219;28;20029;-66
2023/04/19 01:27:52;;;;;;;1.70;1.60;;;18.00;69.70;;;;;;5033346;28;20025;-66
2023/04/19 01:30:18;;;;;;;1.88;1.33;;;18.00;69.70;;;;;;5033364;28;20030;-66
2023/04/19 01:32:44;;;;;;;1.50;1.40;;;18.00;69.70;;;;;;5033414;28;20022;-66
2023/04/19 01:35:12;;;;;;;1.40;1.30;;;18.00;69.70;;;;;;5033091;28;20040;-66
2023/04/19 01:37:38;;;;;;;1.60;1.50;;;18.00;69.70;;;;;;5033420;28;20025;-66
2023/04/19 01:40:04;;;;;;;1.45;1.35;;;18.00;69.70;;;;;;5032952;28;20045;-66
2023/04/19 01:42:30;;;;;;;1.48;1.38;;;18.00;69.70;;;;;;5031839;28;20453;-66
2023/04/19 01:44:56;;;;;;;2.15;1.30;;;18.00;69.90;;;;;;5032857;28;20057;-67
2023/04/19 01:47:22;;;;;;;4.55;1.90;;;18.00;70.00;;;;;;5031978;28;20013;-67
2023/04/19 01:49:47;;;;;;;1.45;1.35;;;18.00;70.00;;;;;;5031981;28;20040;-66
2023/04/19 01:52:13;;;;;;;1.27;1.20;;;18.00;70.00;;;;;;5033092;28;20030;-67
2023/04/19 01:54:38;;;;;;;1.55;1.45;;;18.00;70.00;;;;;;5032598;28;20045;-67
2023/04/19 01:57:04;;;;;;;1.90;1.40;;;18.00;70.00;;;;;;5033128;28;20097;-66
2023/04/19 01:59:30;;;;;;;1.90;1.42;;;18.00;70.00;;;;;;5033192;28;20033;-66
2023/04/19 02:01:55;;;;;;;2.35;1.52;;;17.90;70.00;;;;;;5032818;28;20364;-67
2023/04/19 02:04:21;;;;;;;1.20;1.20;;;18.00;70.00;;;;;;5033016;28;20025;-66
2023/04/19 02:06:47;;;;;;;1.73;1.25;;;17.90;70.00;;;;;;5031709;28;20400;-66
2023/04/19 02:09:12;;;;;;;1.38;1.27;;;18.00;70.20;;;;;;5032500;28;20029;-66
2023/04/19 02:11:38;;;;;;;1.67;1.58;;;18.00;70.10;;;;;;5032868;28;20460;-66
2023/04/19 02:14:03;;;;;;;2.35;1.50;;;18.00;70.10;;;;;;5034525;28;20037;-66
2023/04/19 02:16:29;;;;;;;1.88;1.60;;;18.00;70.20;;;;;;5035803;28;20021;-67
2023/04/19 02:18:55;;;;;;;1.98;1.45;;;17.90;70.10;;;;;;5037081;28;20026;-66
2023/04/19 02:21:20;;;;;;;1.60;1.50;;;17.90;70.20;;;;;;5036989;28;20060;-66
2023/04/19 02:23:46;;;;;;;1.48;1.38;;;17.90;70.20;;;;;;5036418;28;20034;-66
2023/04/19 02:26:12;;;;;;;3.10;1.50;;;17.90;70.10;;;;;;5036736;28;20030;-66
2023/04/19 02:28:38;;;;;;;2.17;1.50;;;17.90;70.10;;;;;;5036653;28;20021;-66
2023/04/19 02:31:04;;;;;;;1.63;1.52;;;17.90;70.20;;;;;;5036790;28;20033;-66
2023/04/19 02:33:30;;;;;;;1.40;1.30;;;17.90;70.20;;;;;;5036816;28;20384;-66
2023/04/19 02:35:56;;;;;;;1.50;1.40;;;17.90;70.20;;;;;;5036565;28;20030;-66
2023/04/19 02:38:21;;;;;;;1.35;1.25;;;17.90;70.20;;;;;;5036272;28;20467;-66
2023/04/19 02:40:47;;;;;;;1.98;1.50;;;17.90;70.20;;;;;;5035253;28;20029;-67
2023/04/19 02:43:12;;;;;;;3.38;1.50;;;17.90;70.30;;;;;;5036364;28;20032;-66
2023/04/19 02:45:38;;;;;;;1.48;1.38;;;17.80;71.30;;;;;;5036536;28;20022;-66
2023/04/19 02:48:04;;;;;;;3.00;1.60;;;17.90;70.40;;;;;;5036311;28;20088;-66
2023/04/19 02:50:30;;;;;;;1.70;1.60;;;17.90;70.40;;;;;;5036435;28;20476;-66
2023/04/19 02:52:57;;;;;;;2.28;1.30;;;17.80;70.40;;;;;;5035936;28;20028;-66
2023/04/19 02:55:22;;;;;;;1.52;1.35;;;17.80;70.50;;;;;;5034914;28;20049;-66
2023/04/19 02:57:48;;;;;;;1.40;1.30;;;17.80;70.50;;;;;;5036114;28;20025;-66
2023/04/19 03:00:14;;;;;;;2.28;1.58;;;17.80;70.60;;;;;;5035970;28;20029;-66
2023/04/19 03:02:42;;;;;;;1.60;1.50;;;17.80;70.60;;;;;;5036061;28;20030;-66
2023/04/19 03:05:08;;;;;;;1.60;1.40;;;17.80;70.60;;;;;;5035878;28;20026;-66
2023/04/19 03:07:34;;;;;;;1.40;1.30;;;17.80;70.60;;;;;;5035987;28;20032;-66
2023/04/19 03:10:00;;;;;;;1.58;1.42;;;17.80;70.60;;;;;;5035951;28;20093;-66
2023/04/19 03:12:25;;;;;;;1.63;1.40;;;17.80;70.70;;;;;;5035878;28;20108;-66
2023/04/19 03:14:51;;;;;;;1.83;1.73;;;17.80;70.60;;;;;;5035922;28;20025;-66
2023/04/19 03:17:17;;;;;;;1.60;1.50;;;17.80;70.60;;;;;;5034647;28;20053;-67
2023/04/19 03:19:43;;;;;;;1.70;1.60;;;17.80;70.50;;;;;;5035751;28;20025;-66
2023/04/19 03:22:08;;;;;;;1.52;1.42;;;17.80;70.50;;;;;;5035479;28;20503;-66
2023/04/19 03:24:34;;;;;;;1.63;1.50;;;17.80;70.60;;;;;;5035127;28;20018;-67
2023/04/19 03:27:00;;;;;;;2.28;1.70;;;17.80;70.60;;;;;;5035002;28;20049;-66
2023/04/19 03:29:25;;;;;;;3.30;1.92;;;17.80;70.60;;;;;;5035391;28;20190;-66
2023/04/19 03:31:51;;;;;;;4.78;1.42;;;17.80;70.70;;;;;;5034314;28;20029;-66
2023/04/19 03:34:16;;;;;;;2.13;1.90;;;17.80;70.70;;;;;;5035270;28;20018;-66
2023/04/19 03:36:42;;;;;;;1.77;1.67;;;17.80;70.70;;;;;;5035270;28;20080;-66
2023/04/19 03:39:08;;;;;;;1.65;1.40;;;17.80;70.70;;;;;;5035263;28;20476;-66
2023/04/19 03:41:33;;;;;;;1.85;1.75;;;17.80;70.70;;;;;;5035428;28;20037;-66
2023/04/19 03:43:59;;;;;;;1.67;1.58;;;17.80;70.70;;;;;;5035155;28;20025;-66
2023/04/19 03:46:25;;;;;;;2.05;1.70;;;17.80;70.70;;;;;;5035294;28;20026;-66
2023/04/19 03:48:51;;;;;;;2.97;2.00;;;17.80;70.60;;;;;;5034075;28;20523;-66
2023/04/19 03:51:17;;;;;;;1.98;1.83;;;17.80;70.90;;;;;;5034941;28;20029;-66
2023/04/19 03:53:42;;;;;;;2.53;1.90;;;17.80;71.00;;;;;;5034912;28;20029;-66
2023/04/19 03:56:08;;;;;;;1.65;1.55;;;17.70;71.10;;;;;;5034789;28;20117;-66
2023/04/19 03:58:34;;;;;;;1.65;1.55;;;17.70;71.30;;;;;;5033649;28;20104;-66
2023/04/19 04:01:00;;;;;;;3.42;1.40;;;17.80;71.40;;;;;;5033724;28;20036;-66
2023/04/19 04:03:25;;;;;;;1.75;1.60;;;17.80;71.30;;;;;;5034665;28;20021;-66
2023/04/19 04:05:51;;;;;;;3.20;1.65;;;17.80;71.40;;;;;;5033016;28;20025;-66
2023/04/19 04:08:17;;;;;;;1.85;1.75;;;17.80;71.50;;;;;;5034326;28;20021;-66
2023/04/19 04:10:42;;;;;;;3.78;1.63;;;17.80;71.50;;;;;;5033095;28;20094;-66
2023/04/19 04:13:08;;;;;;;1.75;1.63;;;17.80;71.50;;;;;;5034016;28;20159;-66
2023/04/19 04:15:34;;;;;;;1.90;1.70;;;17.80;71.40;;;;;;5034235;28;20541;-66
2023/04/19 04:17:59;;;;;;;1.65;1.55;;;17.70;71.40;;;;;;5033943;28;20025;-66
2023/04/19 04:20:25;;;;;;;2.03;1.60;;;17.70;71.40;;;;;;5033906;28;20082;-66
2023/04/19 04:22:51;;;;;;;1.60;1.50;;;17.70;71.40;;;;;;5033922;28;20031;-66
2023/04/19 04:25:17;;;;;;;1.60;1.50;;;17.70;71.40;;;;;;5033724;28;20484;-66
2023/04/19 04:27:45;;;;;;;3.08;1.52;;;17.70;71.40;;;;;;5032895;28;20050;-66
2023/04/19 04:30:11;;;;;;;1.52;1.40;;;17.70;71.40;;;;;;5033808;28;20032;-66
2023/04/19 04:32:37;;;;;;;2.25;1.70;;;17.70;71.40;;;;;;5033639;28;20025;-66
2023/04/19 04:35:04;;;;;;;1.92;1.70;;;17.70;71.40;;;;;;5032669;28;20056;-66
2023/04/19 04:37:33;;;;;;;4.07;1.90;;;17.70;71.50;;;;;;5014796;28;20553;-66
2023/04/19 04:40:00;;;;;;;4.15;1.58;;;17.70;71.50;;;;;;5033733;28;20021;-66
2023/04/19 04:42:26;;;;;;;2.65;1.70;;;17.70;71.50;;;;;;5033447;28;20025;-66
2023/04/19 04:44:52;;;;;;;1.63;1.52;;;17.70;71.50;;;;;;5033583;28;20084;-66
2023/04/19 04:47:19;;;;;;;2.00;1.83;;;17.70;71.50;;;;;;5032127;28;20022;-66
2023/04/19 04:49:45;;;;;;;1.67;1.45;;;17.70;71.50;;;;;;5033472;28;20049;-66
2023/04/19 04:52:11;;;;;;;1.65;1.55;;;17.70;71.50;;;;;;5032309;28;20056;-66
2023/04/19 04:54:36;;;;;;;3.45;1.38;;;17.70;71.60;;;;;;5033235;28;20115;-66
2023/04/19 04:57:02;;;;;;;1.80;1.50;;;17.70;71.50;;;;;;5033817;28;20040;-66
2023/04/19 04:59:28;;;;;;;4.15;1.70;;;17.70;71.50;;;;;;5033188;28;20404;-66
2023/04/19 05:01:54;;;;;;;2.67;1.60;;;17.70;71.50;;;;;;5033068;28;20026;-66
2023/04/19 05:04:19;;;;;;;2.45;1.52;;;17.70;71.50;;;;;;5033173;28;20032;-66
2023/04/19 05:06:45;;;;;;;1.70;1.60;;;17.70;71.50;;;;;;5033033;28;20100;-66
2023/04/19 05:09:11;;;;;;;1.60;1.50;;;17.70;71.60;;;;;;5033147;28;20025;-66
2023/04/19 05:11:36;;;;;;;3.55;1.67;;;17.70;71.60;;;;;;5031896;28;20032;-66
2023/04/19 05:14:02;;;;;;;1.95;1.70;;;17.70;71.50;;;;;;5033090;28;20036;-67
2023/04/19 05:16:28;;;;;;;1.63;1.50;;;17.70;71.50;;;;;;5032586;28;20017;-66
2023/04/19 05:18:54;;;;;;;3.75;1.42;;;17.60;71.50;;;;;;5031875;28;20098;-66
2023/04/19 05:21:20;;;;;;;2.15;1.65;;;17.60;71.50;;;;;;5032781;28;20021;-66
2023/04/19 05:23:45;;;;;;;1.58;1.48;;;17.60;71.60;;;;;;5031799;28;20057;-66
2023/04/19 05:26:13;;;;;;;2.70;1.58;;;17.60;71.70;;;;;;5032866;28;20134;-66
2023/04/19 05:28:39;;;;;;;1.65;1.55;;;17.60;71.60;;;;;;5033328;28;20014;-66
2023/04/19 05:31:05;;;;;;;1.50;1.40;;;17.60;71.60;;;;;;5031338;28;20013;-66
2023/04/19 05:33:31;;;;;;;3.63;1.70;;;17.60;71.60;;;;;;5032721;28;20564;-66
2023/04/19 05:35:57;;;;;;;2.15;1.60;;;17.60;71.50;;;;;;5032678;28;20028;-66
2023/04/19 05:38:22;;;;;;;2.28;1.60;;;17.60;71.50;;;;;;5032765;28;20105;-66
2023/04/19 05:40:48;;;;;;;1.70;1.60;;;17.60;71.50;;;;;;5032385;28;20021;-66
2023/04/19 05:43:13;;;;;;;1.90;1.80;;;17.60;71.60;;;;;;5032409;28;20033;-66
2023/04/19 05:45:39;;;;;;;1.80;1.52;;;17.60;71.60;;;;;;5032253;28;20029;-66
2023/04/19 05:48:05;;;;;;;1.60;1.50;;;17.60;71.50;;;;;;5032190;28;20380;-66
2023/04/19 05:50:31;;;;;;;1.60;1.50;;;17.60;71.60;;;;;;5032370;28;20022;-66
2023/04/19 05:52:57;;;;;;;1.88;1.25;;;17.60;71.70;;;;;;5031488;28;20096;-66
2023/04/19 05:55:22;;;;;;;2.75;1.58;;;17.60;71.80;;;;;;5032219;28;20113;-66
2023/04/19 05:57:49;;;;;;;1.73;1.40;;;17.50;71.80;;;;;;5032453;28;20029;-66
2023/04/19 06:00:15;;;;;;;1.92;1.50;;;17.60;71.90;;;;;;5031075;28;20030;-67
2023/04/19 06:02:42;;;;;;;2.25;1.58;;;17.60;72.00;;;;;;5032305;28;20523;-66
2023/04/19 06:05:08;;;;;;;1.50;1.40;;;17.60;71.90;;;;;;5032263;28;20049;-66
2023/04/19 06:07:33;;;;;;;1.98;1.88;;;17.60;71.90;;;;;;5032331;28;20249;-66
2023/04/19 06:09:59;;;;;;;3.30;1.70;;;17.60;71.80;;;;;;5030216;28;20018;-66
2023/04/19 06:12:25;;;;;;;1.75;1.65;;;17.60;71.70;;;;;;5031910;28;20033;-65
2023/04/19 06:14:51;;;;;;;2.58;1.98;;;17.50;71.50;;;;;;5032095;28;20135;-65
2023/04/19 06:17:22;;;;;;;1.77;1.67;;;17.50;71.30;;;;;;5032217;28;20495;-65
2023/04/19 06:19:47;;;;;;;2.78;1.92;;;17.50;71.20;;;;;;5032042;28;20022;-66
2023/04/19 06:22:13;;;;;;;2.00;1.80;;;17.50;71.10;;;;;;5032274;28;20036;-65
2023/04/19 06:24:39;;;;;;;3.55;1.73;;;17.60;71.00;;;;;;5031837;28;20509;-67
2023/04/19 06:27:04;;;;;;;2.45;2.13;;;17.60;70.90;;;;;;5032107;28;20507;-66
2023/04/19 06:29:30;;;;;;;2.25;2.05;;;17.50;70.70;;;;;;5031884;28;20028;-66
2023/04/19 06:31:56;;;;;;;1.83;1.73;;;17.50;70.70;;;;;;5031775;28;20017;-66
2023/04/19 06:34:21;;;;;;;2.03;1.80;;;17.50;70.60;;;;;;5031986;28;20032;-66
2023/04/19 06:36:47;;;;;;;2.30;2.10;;;17.50;70.70;;;;;;5031859;28;20034;-66
2023/04/19 06:39:13;;;;;;;2.50;2.30;;;17.50;70.50;;;;;;5031956;28;20521;-66
2023/04/19 06:41:39;;;;;;;2.30;2.10;;;17.50;70.50;;;;;;5030670;28;20103;-66
2023/04/19 06:44:05;;;;;;;4.03;2.72;;;17.40;70.30;;;;;;5031478;28;20500;-65
2023/04/19 06:46:30;;;;;;;9.68;3.17;;;17.40;70.10;;;;;;5031815;28;20026;-66
2023/04/19 06:48:56;;;;;;;11.55;3.90;;;17.50;70.00;;;;;;5032112;28;20026;-65
2023/04/19 06:51:22;;;;;;;7.15;3.60;;;17.50;70.40;;;;;;5032432;28;20025;-65
2023/04/19 06:53:49;;;;;;;5.20;3.25;;;17.40;70.70;;;;;;5032167;28;20026;-65
2023/04/19 06:56:15;;;;;;;6.32;3.88;;;17.40;70.80;;;;;;5030514;28;20431;-66
2023/04/19 06:58:40;;;;;;;4.90;3.20;;;17.40;70.70;;;;;;5030368;28;20029;-66
2023/04/19 07:01:06;;;;;;;5.25;3.28;;;17.40;70.80;;;;;;5032837;28;20075;-66
2023/04/19 07:03:32;;;;;;;4.38;3.25;;;17.40;70.80;;;;;;5033193;28;20033;-65
2023/04/19 07:05:58;;;;;;;5.03;3.78;;;17.40;70.70;;;;;;5035129;28;20460;-65
2023/04/19 07:08:24;;;;;;;6.53;3.70;;;17.50;70.80;;;;;;5035429;28;20018;-66
2023/04/19 07:10:49;;;;;;;5.22;3.67;;;17.50;70.70;;;;;;5032948;28;20017;-65
2023/04/19 07:13:15;;;;;;;6.07;3.70;;;17.40;70.60;;;;;;5034607;28;20022;-65
2023/04/19 07:15:41;;;;;;;6.05;3.55;;;17.40;70.50;;;;;;5035284;28;20111;-65
2023/04/19 07:18:06;;;;;;;5.18;3.20;;;17.40;70.50;;;;;;5033951;28;20037;-65
2023/04/19 07:20:32;;;;;;;5.90;3.47;;;17.40;70.40;;;;;;5035069;28;20618;-66
2023/04/19 07:22:58;;;;;;;4.03;3.47;;;17.40;70.40;;;;;;5034893;28;20037;-66
2023/04/19 07:25:24;;;;;;;3.80;3.30;;;17.40;70.30;;;;;;5035012;28;20033;-65
2023/04/19 07:27:52;;;;;;;4.63;3.35;;;17.40;70.30;;;;;;5034770;28;20075;-66
2023/04/19 07:30:18;;;;;;;4.03;3.65;;;17.40;70.30;;;;;;5035204;28;20029;-65
2023/04/19 07:32:44;;;;;;;4.70;3.33;;;17.40;70.20;;;;;;5035040;28;20021;-65
2023/04/19 07:35:10;;;;;;;4.93;3.88;;;17.40;71.20;;;;;;5034915;28;20028;-65
2023/04/19 07:37:36;;;;;;;4.55;3.42;;;17.30;70.10;;;;;;5033450;28;20458;-65
2023/04/19 07:40:02;;;;;;;3.65;3.25;;;17.30;70.10;;;;;;5034819;28;20018;-65
2023/04/19 07:42:29;;;;;;;4.55;3.22;;;17.30;70.10;;;;;;5033357;28;20032;-65
2023/04/19 07:44:54;;;;;;;4.05;3.55;;;17.30;70.10;;;;;;5033409;28;20087;-65
2023/04/19 07:47:20;;;;;;;4.82;3.55;;;17.40;70.20;;;;;;5034687;28;20030;-65
2023/04/19 07:49:46;;;;;;;6.18;3.10;;;17.30;70.10;;;;;;5034600;28;20025;-65
2023/04/19 07:52:12;;;;;;;4.15;3.35;;;17.30;70.10;;;;;;5033596;28;20025;-65
2023/04/19 07:54:40;;;;;;;5.85;3.50;;;17.30;70.10;;;;;;5034250;28;20050;-65
2023/04/19 07:57:06;;;;;;;3.30;3.00;;;17.30;70.10;;;;;;5034331;28;20029;-65
2023/04/19 07:59:32;;;;;;;3.35;3.05;;;17.30;70.20;;;;;;5034338;28;20396;-65
2023/04/19 08:01:58;;;;;;;3.88;3.38;;;17.30;70.10;;;;;;5034320;28;20017;-65
2023/04/19 08:04:24;;;;;;;4.63;3.58;;;17.30;70.10;;;;;;5034518;28;20024;-65
2023/04/19 08:06:49;;;;;;;4.57;3.30;;;17.30;70.10;;;;;;5034309;28;20029;-65
2023/04/19 08:09:15;;;;;;;5.13;3.83;;;17.30;70.10;;;;;;5034214;28;20017;-65
2023/04/19 08:11:42;;;;;;;4.18;3.40;;;17.30;70.20;;;;;;5033676;28;20048;-65
2023/04/19 08:14:07;;;;;;;3.80;3.38;;;17.30;70.20;;;;;;5034236;28;20044;-65
2023/04/19 08:16:33;;;;;;;4.70;3.22;;;17.30;70.30;;;;;;5033981;28;20400;-65
2023/04/19 08:18:58;;;;;;;5.80;3.30;;;17.30;70.20;;;;;;5034055;28;20033;-65
2023/04/19 08:21:25;;;;;;;4.25;3.65;;;17.30;70.20;;;;;;5034109;28;20048;-65
2023/04/19 08:23:51;;;;;;;4.90;4.20;;;17.30;70.30;;;;;;5033846;28;20021;-65
2023/04/19 08:26:17;;;;;;;5.63;3.60;;;17.20;70.20;;;;;;5033731;28;20040;-65
2023/04/19 08:28:42;;;;;;;3.60;3.00;;;17.20;70.30;;;;;;5033819;28;20013;-65
2023/04/19 08:31:09;;;;;;;3.53;3.22;;;17.20;70.30;;;;;;5033960;28;20025;-65
2023/04/19 08:33:34;;;;;;;5.15;3.20;;;17.30;70.40;;;;;;5032600;28;20076;-65
2023/04/19 08:36:00;;;;;;;3.25;2.97;;;17.30;70.40;;;;;;5033773;28;20400;-66
2023/04/19 08:38:26;;;;;;;4.38;3.55;;;17.30;70.40;;;;;;5033736;28;20554;-65
2023/04/19 08:40:52;;;;;;;4.15;3.40;;;17.20;70.30;;;;;;5033114;28;20030;-65
2023/04/19 08:43:18;;;;;;;4.40;3.55;;;17.20;70.40;;;;;;5033447;28;20076;-65
2023/04/19 08:45:48;;;;;;;4.75;3.58;;;17.20;70.50;;;;;;5032025;28;20117;-65
2023/04/19 08:48:14;;;;;;;4.20;3.17;;;17.20;70.50;;;;;;5032530;28;20025;-65
2023/04/19 08:50:45;;;;;;;3.15;2.85;;;17.20;70.40;;;;;;5032319;28;20053;-65
2023/04/19 08:53:10;;;;;;;3.70;3.40;;;17.20;70.40;;;;;;5032317;28;20022;-65
2023/04/19 08:55:37;;;;;;;3.45;3.15;;;17.20;70.40;;;;;;5031737;28;20056;-66
2023/04/19 08:58:03;;;;;;;4.78;3.25;;;17.20;70.50;;;;;;5031932;28;20022;-65
2023/04/19 09:00:29;;;;;;;4.47;3.00;;;17.20;70.50;;;;;;5033302;28;20414;-65
2023/04/19 09:02:55;;;;;;;4.07;3.55;;;17.20;70.40;;;;;;5032059;28;20026;-65
2023/04/19 09:05:21;;;;;;;4.45;3.17;;;17.20;70.40;;;;;;5033075;28;20537;-65
2023/04/19 09:07:46;;;;;;;3.67;3.10;;;17.20;70.40;;;;;;5033097;28;20013;-65
2023/04/19 09:10:14;;;;;;;3.88;3.22;;;17.20;70.40;;;;;;5032734;28;20028;-65
2023/04/19 09:12:39;;;;;;;3.38;3.08;;;17.20;70.40;;;;;;5031677;28;20092;-65
2023/04/19 09:15:07;;;;;;;3.63;3.33;;;17.20;70.50;;;;;;5032878;28;20171;-66
2023/04/19 09:17:37;;;;;;;4.50;3.40;;;17.20;70.50;;;;;;5033075;28;20492;-65
2023/04/19 09:20:03;;;;;;;3.25;2.95;;;17.20;70.50;;;;;;5032934;28;20082;-65
2023/04/19 09:22:29;;;;;;;3.95;3.33;;;17.20;70.50;;;;;;5031215;28;20022;-65
2023/04/19 09:24:56;;;;;;;3.47;3.17;;;17.20;70.60;;;;;;5032370;28;20029;-65
2023/04/19 09:27:26;;;;;;;3.55;3.25;;;17.10;70.50;;;;;;5032912;28;20083;-65
2023/04/19 09:29:53;;;;;;;4.15;3.60;;;17.20;70.50;;;;;;5032712;28;20029;-65
2023/04/19 09:32:19;;;;;;;3.80;3.35;;;17.20;70.50;;;;;;5032940;28;20075;-65
2023/04/19 09:35:11;;;;;;;4.50;3.35;;;17.20;70.60;;;;;;5031222;28;20033;-65
2023/04/19 09:37:38;;;;;;;5.60;3.40;;;17.10;70.50;;;;;;5031482;28;20495;-65
2023/04/19 09:40:23;;;;;;;3.55;2.97;;;17.10;70.50;;;;;;5032468;28;20026;-65
2023/04/19 09:42:48;;;;;;;3.40;3.10;;;17.20;70.60;;;;;;5012708;28;20029;-65
2023/04/19 09:45:14;;;;;;;3.33;3.03;;;17.10;70.60;;;;;;5012724;28;20026;-65
2023/04/19 09:47:39;;;;;;;3.58;3.28;;;17.10;70.60;;;;;;5011638;28;20026;-65
2023/04/19 09:50:06;;;;;;;3.00;2.80;;;17.10;70.50;;;;;;5011472;28;20029;-65
2023/04/19 09:52:33;;;;;;;2.65;2.45;;;17.10;70.60;;;;;;5012543;28;20068;-65
2023/04/19 09:55:01;;;;;;;4.30;3.13;;;17.10;70.60;;;;;;5012525;28;20042;-65
2023/04/19 09:57:26;;;;;;;3.22;3.00;;;17.10;70.60;;;;;;5012627;28;20028;-65
2023/04/19 09:59:52;;;;;;;3.30;3.00;;;17.10;70.60;;;;;;5011363;28;20030;-65
2023/04/19 10:02:17;;;;;;;3.38;2.95;;;17.10;70.60;;;;;;5011616;28;20101;-65
2023/04/19 10:04:43;;;;;;;3.13;2.80;;;17.10;70.70;;;;;;5011282;28;20030;-65
2023/04/19 10:07:09;;;;;;;3.08;2.70;;;17.10;70.60;;;;;;5011039;28;20480;-65
2023/04/19 10:09:34;;;;;;;4.10;2.58;;;17.10;70.60;;;;;;5012484;28;20095;-65
2023/04/19 10:12:00;;;;;;;2.90;2.70;;;17.10;70.60;;;;;;5030293;28;20026;-65
2023/04/19 10:14:26;;;;;;;3.20;2.90;;;17.10;70.60;;;;;;5030941;28;20067;-65
2023/04/19 10:16:54;;;;;;;2.70;2.50;;;17.10;70.60;;;;;;5014580;28;20496;-65
2023/04/19 10:19:20;;;;;;;3.13;2.92;;;17.10;70.70;;;;;;5031044;28;20076;-65
2023/04/19 10:21:46;;;;;;;2.88;2.67;;;17.10;70.70;;;;;;5030744;28;20032;-66
2023/04/19 10:24:13;;;;;;;2.80;2.60;;;17.10;70.70;;;;;;5014872;28;20104;-65
2023/04/19 10:27:04;;;;;;;3.00;2.75;;;17.10;70.70;;;;;;5031201;28;20028;-65
2023/04/19 10:30:11;;;;;;;4.35;2.95;;;17.10;70.70;;;;;;5032203;28;20053;-65
2023/04/19 10:32:41;;;;;;;3.00;2.70;;;17.10;70.70;;;;;;5010178;28;20563;-65
2023/04/19 10:35:20;;;;;;;2.50;2.30;;;17.10;70.70;;;;;;5011590;28;20040;-65
2023/04/19 10:38:21;;;;;;;2.97;2.55;;;17.10;70.70;;;;;;5014111;28;20092;-65
2023/04/19 10:40:55;;;;;;;3.85;3.05;;;17.10;70.70;;;;;;4939275;29;20043;-65
2023/04/19 10:43:25;;;;;;;2.67;2.38;;;17.10;70.70;;;;;;4955488;29;20045;-65
2023/04/19 10:45:50;;;;;;;2.72;2.53;;;17.10;70.70;;;;;;4955417;29;20066;-65
2023/04/19 10:48:34;;;;;;;3.20;2.90;;;17.10;70.70;;;;;;4955503;29;20063;-65
2023/04/19 10:51:01;;;;;;;3.20;2.90;;;17.10;70.70;;;;;;4955196;29;20031;-66
2023/04/19 10:53:47;;;;;;;2.55;2.38;;;17.10;70.70;;;;;;4939366;29;20043;-65
2023/04/19 10:56:12;;;;;;;2.83;2.53;;;17.10;70.70;;;;;;4939307;29;20051;-65
2023/04/19 10:59:20;;;;;;;2.50;2.30;;;17.00;70.70;;;;;;4939319;29;20043;-65
2023/04/19 11:01:50;;;;;;;2.35;2.15;;;17.10;70.80;;;;;;4955265;29;20502;-65
2023/04/19 11:04:28;;;;;;;2.92;2.72;;;17.10;70.80;;;;;;4955171;29;20035;-65
2023/04/19 11:07:03;;;;;;;2.70;2.50;;;17.10;70.80;;;;;;4952895;28;20039;-65
2023/04/19 11:09:37;;;;;;;2.53;2.33;;;17.10;70.80;;;;;;4974662;28;20085;-65
2023/04/19 11:12:07;;;;;;;2.88;2.60;;;17.10;70.70;;;;;;4992107;28;20054;-65
2023/04/19 11:14:38;;;;;;;2.40;2.20;;;17.10;70.70;;;;;;5010760;28;20037;-65
2023/04/19 11:17:17;;;;;;;2.88;2.60;;;17.10;70.70;;;;;;5035330;28;20026;-65
2023/04/19 11:19:44;;;;;;;2.40;2.20;;;17.10;70.70;;;;;;5035026;28;20028;-65
2023/04/19 11:22:10;;;;;;;2.50;2.30;;;17.10;70.80;;;;;;5035160;28;20074;-65
2023/04/19 11:24:36;;;;;;;2.55;2.38;;;17.10;70.80;;;;;;5035186;28;20029;-65
2023/04/19 11:27:06;;;;;;;2.55;2.35;;;17.10;70.80;;;;;;5034988;28;20053;-65
2023/04/19 11:29:31;;;;;;;2.38;2.15;;;17.10;70.80;;;;;;5033992;28;20063;-65
2023/04/19 11:31:59;;;;;;;2.50;2.30;;;17.10;70.80;;;;;;5034756;28;20505;-65
2023/04/19 11:34:24;;;;;;;2.92;2.72;;;17.00;70.70;;;;;;5034792;28;20083;-65
2023/04/19 11:36:50;;;;;;;2.30;2.10;;;17.10;71.80;;;;;;5034910;28;20034;-65
2023/04/19 11:39:17;;;;;;;2.40;2.20;;;17.10;70.90;;;;;;5034790;28;20026;-65
2023/04/19 11:41:42;;;;;;;2.30;2.10;;;17.10;70.80;;;;;;5034808;28;20025;-65
2023/04/19 11:44:20;;;;;;;2.13;2.03;;;17.10;70.80;;;;;;5033304;28;20038;-65
2023/04/19 11:46:59;;;;;;;2.60;2.40;;;17.10;70.80;;;;;;5032854;28;20511;-65
2023/04/19 11:49:29;;;;;;;6.65;1.90;;;17.10;71.00;;;;;;5034415;28;20029;-65
2023/04/19 11:52:01;;;;;;;2.42;2.30;;;17.10;70.90;;;;;;5034340;28;20028;-65
2023/04/19 11:54:27;;;;;;;2.20;2.08;;;17.10;70.80;;;;;;5033361;28;20046;-65
2023/04/19 11:57:10;;;;;;;2.50;2.30;;;17.10;70.80;;;;;;5033344;28;20036;-65
2023/04/19 11:59:37;;;;;;;1.98;1.88;;;17.10;70.80;;;;;;5034460;28;20164;-65
2023/04/19 12:02:12;;;;;;;2.30;2.10;;;17.10;70.80;;;;;;5034046;28;20021;-65
2023/04/19 12:04:38;;;;;;;2.60;2.40;;;17.10;70.80;;;;;;5034404;28;20104;-65
2023/04/19 12:07:04;;;;;;;2.40;2.20;;;17.10;70.90;;;;;;5034366;28;20108;-65
2023/04/19 12:09:32;;;;;;;3.55;2.10;;;17.10;71.00;;;;;;5033379;28;20032;-65
2023/04/19 12:11:58;;;;;;;2.75;2.10;;;17.10;70.90;;;;;;5034012;28;20017;-65
2023/04/19 12:14:25;;;;;;;2.30;2.10;;;17.10;70.90;;;;;;5034065;28;20029;-65
2023/04/19 12:17:05;;;;;;;2.42;2.22;;;17.10;70.90;;;;;;5016694;28;20079;-65
2023/04/19 12:19:34;;;;;;;2.22;1.95;;;17.10;70.90;;;;;;5033049;28;20036;-65
2023/04/19 12:22:13;;;;;;;2.22;2.03;;;17.10;70.90;;;;;;5032920;28;20025;-65
2023/04/19 12:24:39;;;;;;;2.10;2.00;;;17.10;70.90;;;;;;5032607;28;20033;-65
2023/04/19 12:27:05;;;;;;;2.25;2.10;;;17.10;71.00;;;;;;5032445;28;20399;-65
2023/04/19 12:29:31;;;;;;;2.10;2.00;;;17.10;70.90;;;;;;5034056;28;20488;-65
2023/04/19 12:31:57;;;;;;;1.95;1.85;;;17.10;70.90;;;;;;5033550;28;20420;-65
2023/04/19 12:34:23;;;;;;;2.65;2.45;;;17.10;71.00;;;;;;5033674;28;20061;-65
2023/04/19 12:36:48;;;;;;;2.03;1.92;;;17.10;70.90;;;;;;5033646;28;20026;-65
2023/04/19 12:39:14;;;;;;;2.30;2.10;;;17.10;71.10;;;;;;5033654;28;20427;-65
2023/04/19 12:41:40;;;;;;;2.00;1.90;;;17.10;71.00;;;;;;5033688;28;20435;-65
2023/04/19 12:44:05;;;;;;;2.30;2.10;;;17.10;71.00;;;;;;5033178;28;20037;-65
2023/04/19 12:46:31;;;;;;;2.50;2.30;;;17.10;71.00;;;;;;5033176;28;20072;-65